createdAt,value
2017-08-18T00:00:10.545Z,19.33
2017-08-18T00:02:38.985Z,19.30
2017-08-18T00:05:07.436Z,19.28
2017-08-18T00:07:35.901Z,19.28
2017-08-18T00:10:04.387Z,19.20
2017-08-18T00:12:32.867Z,19.15
2017-08-18T00:15:01.335Z,19.15
2017-08-18T00:17:29.819Z,19.15
2017-08-18T00:19:58.276Z,19.10
2017-08-18T00:22:27.522Z,19.03
2017-08-18T00:24:55.981Z,19.00
2017-08-18T00:27:24.421Z,18.98
2017-08-18T00:29:52.938Z,19.01
2017-08-18T00:32:21.373Z,18.91
2017-08-18T00:34:49.799Z,18.95
2017-08-18T00:37:18.292Z,18.94
2017-08-18T00:39:46.782Z,18.89
2017-08-18T00:42:15.255Z,18.94
2017-08-18T00:44:43.684Z,18.90
2017-08-18T00:47:12.131Z,18.87
2017-08-18T00:49:40.562Z,18.89
2017-08-18T00:52:09.797Z,18.85
2017-08-18T00:54:38.285Z,18.87
2017-08-18T00:57:06.758Z,18.75
2017-08-18T00:59:35.254Z,18.73
2017-08-18T01:02:03.723Z,18.77
2017-08-18T01:04:32.209Z,18.72
2017-08-18T01:07:00.703Z,18.71
2017-08-18T01:09:29.142Z,18.71
2017-08-18T01:11:58.468Z,18.66
2017-08-18T01:14:26.945Z,18.65
2017-08-18T01:16:55.441Z,18.61
2017-08-18T01:19:23.926Z,18.59
2017-08-18T01:21:52.358Z,18.55
2017-08-18T01:24:21.606Z,18.56
2017-08-18T01:26:50.037Z,18.53
2017-08-18T01:29:18.559Z,18.49
2017-08-18T01:31:47.053Z,18.48
2017-08-18T01:34:15.539Z,18.45
2017-08-18T01:36:43.967Z,18.48
2017-08-18T01:39:13.198Z,18.42
2017-08-18T01:41:41.684Z,18.42
2017-08-18T01:44:10.178Z,18.44
2017-08-18T01:46:38.647Z,18.47
2017-08-18T01:49:07.118Z,18.47
2017-08-18T01:51:35.621Z,18.47
2017-08-18T01:54:04.089Z,18.49
2017-08-18T01:56:32.575Z,18.48
2017-08-18T01:59:01.055Z,18.52
2017-08-18T02:01:29.493Z,18.53
2017-08-18T02:03:57.953Z,18.49
2017-08-18T02:06:26.379Z,18.47
2017-08-18T02:08:55.699Z,18.47
2017-08-18T02:11:24.136Z,18.48
2017-08-18T02:13:52.583Z,18.57
2017-08-18T02:16:21.043Z,18.57
2017-08-18T02:18:49.526Z,18.61
2017-08-18T02:21:18.007Z,18.61
2017-08-18T02:23:46.604Z,18.66
2017-08-18T02:26:15.076Z,18.71
2017-08-18T02:28:43.503Z,18.70
2017-08-18T02:31:12.045Z,18.69
2017-08-18T02:33:40.529Z,18.65
2017-08-18T02:36:08.998Z,18.60
2017-08-18T02:38:37.488Z,18.59
2017-08-18T02:41:05.943Z,18.54
2017-08-18T02:43:35.163Z,18.47
2017-08-18T02:46:03.625Z,18.42
2017-08-18T02:48:32.818Z,18.38
2017-08-18T02:51:02.165Z,18.34
2017-08-18T02:53:30.603Z,18.30
2017-08-18T02:55:59.927Z,18.29
2017-08-18T02:58:28.351Z,18.28
2017-08-18T03:00:56.904Z,18.24
2017-08-18T03:03:25.381Z,18.24
2017-08-18T03:05:53.856Z,18.19
2017-08-18T03:08:22.338Z,18.19
2017-08-18T03:10:50.831Z,18.22
2017-08-18T03:13:19.292Z,18.19
2017-08-18T03:15:47.783Z,18.26
2017-08-18T03:18:16.284Z,18.26
2017-08-18T03:20:44.711Z,18.32
2017-08-18T03:23:13.943Z,18.37
2017-08-18T03:25:42.367Z,18.40
2017-08-18T03:28:10.830Z,18.41
2017-08-18T03:30:39.297Z,18.43
2017-08-18T03:33:07.764Z,18.41
2017-08-18T03:35:36.200Z,18.44
2017-08-18T03:38:04.647Z,18.48
2017-08-18T03:40:33.077Z,18.47
2017-08-18T03:43:02.306Z,18.48
2017-08-18T03:45:30.807Z,18.48
2017-08-18T03:47:59.269Z,18.47
2017-08-18T03:50:27.699Z,18.50
2017-08-18T03:52:56.238Z,18.49
2017-08-18T03:55:24.719Z,18.52
2017-08-18T03:57:53.180Z,18.54
2017-08-18T04:00:21.617Z,18.61
2017-08-18T04:02:50.073Z,18.57
2017-08-18T04:05:18.504Z,18.57
2017-08-18T04:07:46.969Z,18.52
2017-08-18T04:10:15.408Z,18.51
2017-08-18T04:12:43.901Z,18.55
2017-08-18T04:15:12.371Z,18.56
2017-08-18T04:17:40.824Z,18.57
2017-08-18T04:20:10.056Z,18.56
2017-08-18T04:22:38.540Z,18.54
2017-08-18T04:25:07.002Z,18.55
2017-08-18T04:27:35.496Z,18.62
2017-08-18T04:30:03.979Z,18.65
2017-08-18T04:32:32.463Z,18.64
2017-08-18T04:35:00.954Z,18.68
2017-08-18T04:37:29.400Z,18.65
2017-08-18T04:39:58.723Z,18.67
2017-08-18T04:42:27.216Z,18.68
2017-08-18T04:44:55.673Z,18.59
2017-08-18T04:47:24.107Z,18.57
2017-08-18T04:49:52.568Z,18.63
2017-08-18T04:52:20.999Z,18.66
2017-08-18T04:54:50.215Z,18.68
2017-08-18T04:57:18.652Z,18.69
2017-08-18T04:59:47.211Z,18.70
2017-08-18T05:02:15.690Z,18.72
2017-08-18T05:04:44.159Z,18.78
2017-08-18T05:07:12.651Z,18.79
2017-08-18T05:09:41.126Z,18.84
2017-08-18T05:12:09.618Z,18.80
2017-08-18T05:14:38.097Z,18.94
2017-08-18T05:17:06.541Z,19.00
2017-08-18T05:19:35.765Z,19.04
2017-08-18T05:22:04.256Z,19.13
2017-08-18T05:24:32.707Z,19.10
2017-08-18T05:27:01.911Z,19.09
2017-08-18T05:29:30.359Z,19.13
2017-08-18T05:31:58.787Z,19.21
2017-08-18T05:34:27.285Z,19.15
2017-08-18T05:36:55.728Z,19.25
2017-08-18T05:39:25.060Z,19.18
2017-08-18T05:41:53.501Z,19.19
2017-08-18T05:44:22.745Z,19.34
2017-08-18T05:46:51.215Z,19.42
2017-08-18T05:49:19.652Z,19.52
2017-08-18T05:51:48.189Z,19.61
2017-08-18T05:54:16.632Z,19.57
2017-08-18T05:56:45.860Z,19.61
2017-08-18T05:59:14.352Z,19.66
2017-08-18T06:01:42.837Z,19.62
2017-08-18T06:04:11.271Z,19.71
2017-08-18T06:06:40.508Z,19.88
2017-08-18T06:09:08.987Z,20.02
2017-08-18T06:11:37.460Z,20.23
2017-08-18T06:14:05.960Z,20.37
2017-08-18T06:16:34.445Z,20.53
2017-08-18T06:19:02.927Z,20.67
2017-08-18T06:21:31.399Z,20.71
2017-08-18T06:23:59.841Z,20.89
2017-08-18T06:26:29.188Z,21.13
2017-08-18T06:28:57.664Z,21.20
2017-08-18T06:31:26.131Z,21.13
2017-08-18T06:33:54.627Z,21.15
2017-08-18T06:36:23.212Z,20.94
2017-08-18T06:38:51.648Z,20.88
2017-08-18T06:41:20.170Z,20.92
2017-08-18T06:43:48.692Z,20.78
2017-08-18T06:46:17.128Z,20.79
2017-08-18T06:48:45.619Z,20.88
2017-08-18T06:51:14.056Z,20.93
2017-08-18T06:53:42.517Z,21.13
2017-08-18T06:56:10.973Z,21.12
2017-08-18T06:58:39.457Z,21.30
2017-08-18T07:01:07.938Z,21.36
2017-08-18T07:03:36.401Z,21.52
2017-08-18T07:06:04.894Z,21.55
2017-08-18T07:08:33.371Z,21.64
2017-08-18T07:11:01.864Z,21.71
2017-08-18T07:13:30.345Z,21.81
2017-08-18T07:15:58.818Z,21.99
2017-08-18T07:18:27.299Z,22.16
2017-08-18T07:20:55.795Z,22.41
2017-08-18T07:23:24.256Z,22.47
2017-08-18T07:25:52.744Z,22.55
2017-08-18T07:28:21.244Z,22.80
2017-08-18T07:30:49.701Z,22.68
2017-08-18T07:33:18.191Z,22.77
2017-08-18T07:35:46.661Z,22.90
2017-08-18T07:38:15.105Z,22.54
2017-08-18T07:40:43.569Z,22.67
2017-08-18T07:43:12.025Z,23.03
2017-08-18T07:45:40.510Z,23.41
2017-08-18T07:48:08.950Z,23.20
2017-08-18T07:50:38.280Z,23.06
2017-08-18T07:53:06.712Z,23.34
2017-08-18T07:55:35.176Z,23.07
2017-08-18T07:58:03.617Z,22.94
2017-08-18T08:00:32.117Z,22.95
2017-08-18T08:03:00.551Z,22.71
2017-08-18T08:05:29.767Z,22.92
2017-08-18T08:07:58.276Z,22.78
2017-08-18T08:10:26.749Z,22.92
2017-08-18T08:12:55.235Z,22.98
2017-08-18T08:15:23.715Z,22.83
2017-08-18T08:17:52.206Z,22.89
2017-08-18T08:20:20.679Z,23.11
2017-08-18T08:22:49.160Z,23.19
2017-08-18T08:25:17.639Z,23.44
2017-08-18T08:27:46.124Z,23.74
2017-08-18T08:30:14.564Z,23.92
2017-08-18T08:32:43.084Z,23.86
2017-08-18T08:35:11.525Z,23.96
2017-08-18T08:37:40.270Z,24.19
2017-08-18T08:40:08.749Z,24.29
2017-08-18T08:42:37.230Z,24.30
2017-08-18T08:45:05.713Z,24.40
2017-08-18T08:47:34.194Z,24.47
2017-08-18T08:50:02.637Z,24.66
2017-08-18T08:52:31.879Z,24.70
2017-08-18T08:55:00.358Z,24.69
2017-08-18T08:57:28.807Z,24.85
2017-08-18T08:59:57.249Z,24.81
2017-08-18T09:02:25.717Z,24.95
2017-08-18T09:04:54.152Z,25.03
2017-08-18T09:07:22.620Z,24.55
2017-08-18T09:09:51.127Z,24.62
2017-08-18T09:12:19.833Z,24.82
2017-08-18T09:14:48.299Z,24.79
2017-08-18T09:17:16.751Z,24.86
2017-08-18T09:19:45.189Z,24.87
2017-08-18T09:22:13.655Z,24.96
2017-08-18T09:24:42.127Z,24.71
2017-08-18T09:27:10.616Z,24.69
2017-08-18T09:29:39.073Z,24.46
2017-08-18T09:32:07.566Z,24.80
2017-08-18T09:34:36.051Z,25.04
2017-08-18T09:37:04.544Z,25.04
2017-08-18T09:39:33.003Z,24.97
2017-08-18T09:42:01.518Z,25.04
2017-08-18T09:44:29.989Z,25.47
2017-08-18T09:46:58.424Z,25.35
2017-08-18T09:49:45.477Z,25.52
2017-08-18T09:52:30.655Z,25.32
2017-08-18T09:58:22.161Z,25.61
2017-08-18T10:00:51.395Z,25.81
2017-08-18T10:03:19.871Z,25.92
2017-08-18T10:05:48.359Z,25.74
2017-08-18T10:08:16.849Z,25.35
2017-08-18T10:10:45.316Z,25.11
2017-08-18T10:13:13.799Z,25.01
2017-08-18T10:18:10.050Z,25.49
2017-08-18T10:20:38.500Z,25.43
2017-08-18T10:23:07.025Z,25.62
2017-08-18T10:25:35.511Z,25.67
2017-08-18T10:28:03.941Z,25.73
2017-08-18T10:30:32.455Z,25.61
2017-08-18T10:33:00.875Z,25.64
2017-08-18T10:35:29.424Z,25.89
2017-08-18T10:37:57.902Z,25.79
2017-08-18T10:40:26.388Z,25.73
2017-08-18T10:42:54.876Z,25.41
2017-08-18T10:45:23.360Z,25.62
2017-08-18T10:47:51.789Z,25.86
2017-08-18T10:50:20.256Z,25.78
2017-08-18T10:52:48.700Z,25.69
2017-08-18T10:55:17.170Z,25.60
2017-08-18T10:57:45.643Z,25.53
2017-08-18T11:00:14.072Z,25.42
2017-08-18T11:02:42.628Z,25.42
2017-08-18T11:05:11.099Z,25.48
2017-08-18T11:07:39.707Z,25.73
2017-08-18T11:10:08.176Z,25.46
2017-08-18T11:12:36.655Z,25.42
2017-08-18T11:15:05.072Z,25.46
2017-08-18T11:17:33.526Z,25.31
2017-08-18T11:20:02.010Z,25.15
2017-08-18T11:22:30.459Z,25.26
2017-08-18T11:24:59.660Z,25.23
2017-08-18T11:27:28.103Z,25.16
2017-08-18T11:29:56.648Z,25.14
2017-08-18T11:32:25.108Z,25.01
2017-08-18T11:34:53.613Z,24.90
2017-08-18T11:37:22.097Z,25.10
2017-08-18T11:39:50.536Z,24.97
2017-08-18T11:42:19.063Z,25.03
2017-08-18T11:44:47.536Z,24.99
2017-08-18T11:47:16.016Z,24.85
2017-08-18T11:49:44.509Z,24.97
2017-08-18T11:52:12.928Z,24.80
2017-08-18T11:54:41.459Z,24.74
2017-08-18T11:57:09.972Z,24.73
2017-08-18T11:59:38.488Z,24.80
2017-08-18T12:02:07.743Z,24.97
2017-08-18T12:04:36.312Z,24.91
2017-08-18T12:07:04.791Z,24.99
2017-08-18T12:09:33.282Z,24.89
2017-08-18T12:12:01.729Z,24.91
2017-08-18T12:14:30.188Z,24.85
2017-08-18T12:16:58.660Z,24.71
2017-08-18T12:19:27.204Z,24.82
2017-08-18T12:21:55.690Z,24.54
2017-08-18T12:24:24.304Z,24.53
2017-08-18T12:26:52.731Z,24.49
2017-08-18T12:29:21.174Z,24.44
2017-08-18T12:31:49.722Z,24.26
2017-08-18T12:34:18.204Z,24.05
2017-08-18T12:36:46.673Z,24.03
2017-08-18T12:39:15.109Z,23.88
2017-08-18T12:41:43.645Z,23.74
2017-08-18T12:44:12.084Z,23.75
2017-08-18T12:46:41.323Z,23.73
2017-08-18T12:49:09.764Z,23.65
2017-08-18T12:51:38.989Z,23.49
2017-08-18T12:54:07.426Z,23.38
2017-08-18T12:56:35.959Z,23.37
2017-08-18T12:59:04.452Z,23.37
2017-08-18T13:01:33.036Z,23.37
2017-08-18T13:04:01.500Z,23.16
2017-08-18T13:06:29.999Z,23.08
2017-08-18T13:08:58.471Z,22.93
2017-08-18T13:11:26.955Z,22.71
2017-08-18T13:13:55.440Z,22.60
2017-08-18T13:16:23.887Z,22.51
2017-08-18T13:18:53.119Z,22.42
2017-08-18T13:21:21.616Z,22.45
2017-08-18T13:23:50.055Z,22.30
2017-08-18T13:26:19.394Z,22.32
2017-08-18T13:28:47.844Z,22.30
2017-08-18T13:31:17.064Z,22.32
2017-08-18T13:33:45.543Z,22.25
2017-08-18T13:36:13.995Z,22.33
2017-08-18T13:38:42.427Z,22.33
2017-08-18T13:41:11.002Z,22.32
2017-08-18T13:43:39.471Z,22.11
2017-08-18T13:46:07.955Z,21.81
2017-08-18T13:48:36.411Z,21.44
2017-08-18T13:51:04.919Z,21.31
2017-08-18T13:53:33.377Z,21.37
2017-08-18T13:56:01.889Z,21.52
2017-08-18T13:58:30.380Z,21.61
2017-08-18T14:00:58.839Z,21.69
2017-08-18T14:03:27.291Z,21.90
2017-08-18T14:05:56.529Z,22.02
2017-08-18T14:08:25.026Z,22.06
2017-08-18T14:10:53.479Z,21.96
2017-08-18T14:13:21.961Z,22.16
2017-08-18T14:15:50.451Z,22.10
2017-08-18T14:18:18.932Z,22.12
2017-08-18T14:20:47.369Z,22.17
2017-08-18T14:23:15.809Z,22.38
2017-08-18T14:28:49.515Z,22.22
2017-08-18T14:31:18.009Z,22.14
2017-08-18T14:33:46.489Z,22.12
2017-08-18T14:36:14.978Z,22.05
2017-08-18T14:38:43.454Z,22.02
2017-08-18T14:41:11.928Z,21.78
2017-08-18T14:43:40.383Z,21.71
2017-08-18T14:46:09.603Z,21.65
2017-08-18T14:48:38.903Z,21.67
2017-08-18T14:51:07.332Z,21.70
2017-08-18T14:53:35.772Z,21.67
2017-08-18T14:56:04.208Z,21.58
2017-08-18T14:58:32.670Z,21.54
2017-08-18T15:01:01.110Z,21.60
2017-08-18T15:03:29.608Z,21.53
2017-08-18T15:05:58.089Z,21.48
2017-08-18T15:08:26.567Z,21.47
2017-08-18T15:10:55.056Z,21.62
2017-08-18T15:13:23.493Z,21.58
2017-08-18T15:15:52.703Z,21.63
2017-08-18T15:18:21.903Z,21.65
2017-08-18T15:20:51.234Z,21.54
2017-08-18T15:23:19.712Z,21.57
2017-08-18T15:25:48.159Z,21.68
2017-08-18T15:28:17.387Z,21.79
2017-08-18T15:30:45.870Z,21.84
2017-08-18T15:33:14.367Z,21.81
2017-08-18T15:35:42.829Z,21.77
2017-08-18T15:38:11.305Z,21.74
2017-08-18T15:40:39.765Z,21.68
2017-08-18T15:43:09.001Z,21.77
2017-08-18T15:45:37.469Z,21.98
2017-08-18T15:48:05.899Z,22.21
2017-08-18T15:50:34.449Z,22.25
2017-08-18T15:53:02.929Z,22.45
2017-08-18T15:55:31.399Z,22.39
2017-08-18T15:57:59.883Z,22.34
2017-08-18T16:00:28.341Z,22.28
2017-08-18T16:02:57.577Z,22.27
2017-08-18T16:05:26.027Z,22.18
2017-08-18T16:07:55.257Z,22.07
2017-08-18T16:10:23.738Z,21.80
2017-08-18T16:12:52.163Z,21.87
2017-08-18T16:15:20.702Z,21.95
2017-08-18T16:17:49.130Z,22.04
2017-08-18T16:20:17.668Z,21.96
2017-08-18T16:22:46.142Z,21.99
2017-08-18T16:25:14.616Z,22.01
2017-08-18T16:27:43.098Z,22.03
2017-08-18T16:30:11.571Z,22.03
2017-08-18T16:32:40.064Z,21.99
2017-08-18T16:35:08.553Z,21.94
2017-08-18T16:37:37.021Z,21.90
2017-08-18T16:40:05.443Z,21.89
2017-08-18T16:42:34.007Z,21.87
2017-08-18T16:45:02.471Z,21.93
2017-08-18T16:47:30.951Z,21.99
2017-08-18T16:49:59.385Z,21.95
2017-08-18T16:52:27.931Z,21.84
2017-08-18T16:54:56.412Z,21.79
2017-08-18T16:57:24.888Z,21.81
2017-08-18T16:59:53.412Z,21.83
2017-08-18T17:02:21.959Z,21.76
2017-08-18T17:04:50.427Z,21.78
2017-08-18T17:07:18.867Z,21.70
2017-08-18T17:09:47.302Z,21.66
2017-08-18T17:12:15.767Z,21.71
2017-08-18T17:14:44.260Z,21.54
2017-08-18T17:17:12.736Z,21.50
2017-08-18T17:19:41.211Z,21.39
2017-08-18T17:22:09.655Z,21.42
2017-08-18T17:24:38.194Z,21.47
2017-08-18T17:27:06.674Z,21.31
2017-08-18T17:29:35.153Z,21.29
2017-08-18T17:32:03.638Z,21.19
2017-08-18T17:34:32.118Z,21.28
2017-08-18T17:37:00.587Z,21.18
2017-08-18T17:39:29.068Z,21.10
2017-08-18T17:41:57.560Z,21.13
2017-08-18T17:44:26.031Z,21.01
2017-08-18T17:46:54.520Z,20.88
2017-08-18T17:49:22.994Z,20.97
2017-08-18T17:51:51.415Z,21.05
2017-08-18T17:54:19.969Z,20.93
2017-08-18T17:56:48.391Z,20.92
2017-08-18T17:59:16.924Z,20.93
2017-08-18T18:01:45.451Z,20.86
2017-08-18T18:04:14.001Z,20.82
2017-08-18T18:06:42.485Z,20.71
2017-08-18T18:09:10.956Z,20.68
2017-08-18T18:11:39.448Z,20.68
2017-08-18T18:14:07.914Z,20.66
2017-08-18T18:16:36.400Z,20.58
2017-08-18T18:19:04.904Z,20.50
2017-08-18T18:21:33.337Z,20.48
2017-08-18T18:24:02.685Z,20.43
2017-08-18T18:26:31.143Z,20.42
2017-08-18T18:28:59.636Z,20.40
2017-08-18T18:31:28.093Z,20.38
2017-08-18T18:33:56.587Z,20.36
2017-08-18T18:36:25.035Z,20.40
2017-08-18T18:38:53.555Z,20.29
2017-08-18T18:41:22.004Z,20.10
2017-08-18T18:43:51.235Z,20.00
2017-08-18T18:46:19.679Z,19.95
2017-08-18T18:48:48.108Z,20.03
2017-08-18T18:51:16.561Z,20.12
2017-08-18T18:53:45.063Z,20.11
2017-08-18T18:56:13.515Z,20.11
2017-08-18T18:58:42.727Z,20.12
2017-08-18T19:01:11.233Z,20.20
2017-08-18T19:03:39.723Z,20.16
2017-08-18T19:06:08.302Z,20.16
2017-08-18T19:08:36.744Z,20.13
2017-08-18T19:11:05.950Z,20.20
2017-08-18T19:13:35.171Z,20.21
2017-08-18T19:16:03.647Z,20.12
2017-08-18T19:18:32.081Z,20.17
2017-08-18T19:21:00.616Z,20.12
2017-08-18T19:23:29.112Z,20.07
2017-08-18T19:25:57.590Z,19.94
2017-08-18T19:28:26.069Z,19.81
2017-08-18T19:30:54.548Z,19.83
2017-08-18T19:33:22.983Z,19.83
2017-08-18T19:35:51.510Z,19.85
2017-08-18T19:38:19.988Z,19.83
2017-08-18T19:40:48.432Z,19.79
2017-08-18T19:43:17.676Z,19.91
2017-08-18T19:45:46.143Z,19.82
2017-08-18T19:48:14.631Z,19.74
2017-08-18T19:50:43.047Z,19.70
2017-08-18T19:53:11.595Z,19.66
2017-08-18T19:55:40.088Z,19.61
2017-08-18T19:58:08.552Z,19.66
2017-08-18T20:00:37.047Z,19.61
2017-08-18T20:03:05.534Z,19.70
2017-08-18T20:05:34.005Z,19.67
2017-08-18T20:08:02.461Z,19.66
2017-08-18T20:10:31.697Z,19.69
2017-08-18T20:13:00.178Z,19.65
2017-08-18T20:15:28.649Z,19.70
2017-08-18T20:17:57.142Z,19.69
2017-08-18T20:20:25.620Z,19.69
2017-08-18T20:22:54.095Z,19.69
2017-08-18T20:25:22.584Z,19.68
2017-08-18T20:27:51.065Z,19.66
2017-08-18T20:30:19.545Z,19.66
2017-08-18T20:32:47.988Z,19.59
2017-08-18T20:35:17.233Z,19.62
2017-08-18T20:37:45.693Z,19.64
2017-08-18T20:40:14.708Z,19.60
2017-08-18T20:42:43.189Z,19.58
2017-08-18T20:45:11.655Z,19.54
2017-08-18T20:47:40.153Z,19.52
2017-08-18T20:50:08.635Z,19.58
2017-08-18T20:52:37.100Z,19.61
2017-08-18T20:55:05.595Z,19.59
2017-08-18T20:57:34.034Z,19.53
2017-08-18T21:00:03.257Z,19.50
2017-08-18T21:02:31.701Z,19.52
2017-08-18T21:05:00.138Z,19.53
2017-08-18T21:07:28.611Z,19.53
2017-08-18T21:09:57.108Z,19.52
2017-08-18T21:12:25.535Z,19.47
2017-08-18T21:14:54.775Z,19.48
2017-08-18T21:17:23.212Z,19.42
2017-08-18T21:19:51.745Z,19.43
2017-08-18T21:22:20.218Z,19.41
2017-08-18T21:24:48.711Z,19.40
2017-08-18T21:27:17.152Z,19.41
2017-08-18T21:29:46.479Z,19.41
2017-08-18T21:32:14.903Z,19.36
2017-08-18T21:34:43.448Z,19.33
2017-08-18T21:37:11.926Z,19.34
2017-08-18T21:39:40.389Z,19.33
2017-08-18T21:42:09.621Z,19.33
2017-08-18T21:44:38.101Z,19.30
2017-08-18T21:47:06.571Z,19.28
2017-08-18T21:49:35.066Z,19.24
2017-08-18T21:52:03.540Z,19.20
2017-08-18T21:54:31.964Z,19.22
2017-08-18T21:57:00.422Z,19.22
2017-08-18T21:59:28.875Z,19.20
2017-08-18T22:01:57.360Z,19.15
2017-08-18T22:04:25.839Z,19.10
2017-08-18T22:06:54.319Z,19.10
2017-08-18T22:09:22.815Z,19.09
2017-08-18T22:11:51.277Z,19.08
2017-08-18T22:14:19.763Z,19.04
2017-08-18T22:16:48.247Z,19.08
2017-08-18T22:19:16.732Z,19.08
2017-08-18T22:21:45.211Z,18.99
2017-08-18T22:24:13.691Z,18.86
2017-08-18T22:26:42.189Z,18.86
2017-08-18T22:29:10.671Z,18.78
2017-08-18T22:31:39.135Z,18.67
2017-08-18T22:34:07.623Z,18.49
2017-08-18T22:36:36.071Z,18.47
2017-08-18T22:39:05.308Z,18.39
2017-08-18T22:41:33.764Z,18.34
2017-08-18T22:44:02.983Z,18.29
2017-08-18T22:46:31.463Z,18.27
2017-08-18T22:48:59.960Z,18.15
2017-08-18T22:51:28.441Z,18.14
2017-08-18T22:53:56.907Z,18.15
2017-08-18T22:56:25.388Z,18.19
2017-08-18T22:58:53.811Z,18.22
2017-08-18T23:01:22.255Z,18.15
2017-08-18T23:03:50.742Z,17.97
2017-08-18T23:06:19.159Z,17.92
2017-08-18T23:08:47.609Z,17.89
2017-08-18T23:11:16.089Z,17.95
2017-08-18T23:13:44.573Z,17.92
2017-08-18T23:16:12.999Z,17.87
2017-08-18T23:18:41.461Z,17.81
2017-08-18T23:21:09.903Z,17.74
2017-08-18T23:23:38.388Z,17.69
2017-08-18T23:26:06.825Z,17.64
2017-08-18T23:28:35.281Z,17.58
2017-08-18T23:31:03.728Z,17.55
2017-08-18T23:33:32.169Z,17.55
2017-08-18T23:36:00.688Z,17.64
2017-08-18T23:38:29.186Z,17.67
2017-08-18T23:40:57.646Z,17.69
2017-08-18T23:43:26.133Z,17.75
2017-08-18T23:45:54.616Z,17.74
2017-08-18T23:48:23.119Z,17.75
2017-08-18T23:50:51.593Z,17.71
2017-08-18T23:53:20.059Z,17.71
2017-08-18T23:55:48.512Z,17.73
2017-08-18T23:58:17.707Z,17.71
